Logo AVAMET
Benvolgut visitant, si us plau, ingressa Recuperar contrasenya
AVAMET paisatges

València Primat Reig

Dades diàries. Acumulats / Últims 30 dies disponibles

Data Temperatura (°C) Humitat rel. (%) Pressió rel. (hPa) Vent (km/h) Precipitació
Mínima Mitjana Màxima Amplitud
tèrmica
Mínima Mitjana Màxima Mínima Mitjana Màxima Predom. Mitjana Ràfega
màxima
Total
(mm)
Índex-n
Mínima Mitjana Màxima Mínima Mitjana Màxima n
0 a 1
P0 max
mm 5'
Dades mensuals acumulades fins l'últim dia disponible
12/2020 5,1 8,4 9,8 12,0 14,4 16,3 19,7 14,6 6 55 97 989 1.012 1.029   7,9 45,0 0,0
Dades anuals acumulades fins l'últim dia disponible
2020 5,1 11,6 17,1 14,7 13,5 18,8 23,5 18,4 6 82 98 974 1.007 1.031   4,6 57,4 54,0
Últims 30 dies disponibles
04-12-2020 9,8     12,4     14,4 4,6 37 52 62 999 1.001 1.009 O 14,2 45,0 0,0
03-12-2020 5,1     8,9     15,4 10,3 29 47 61 1.013 1.019 1.029 O 6,9 28,1 0,0
02-12-2020 8,8     13,3     15,5 6,7 6 36 56 994 1.016 1.029 O 8,1 39,2 0,0
01-12-2020 9,7     13,4     19,7 10,0 48 86 97 989 1.011 1.025 O 2,4 20,4 0,0
30-11-2020 10,1     13,6     19,1 9,0 68 87 96 998 1.012 1.020 OSO 2,0 14,8 0,0
29-11-2020 11,7     14,4     20,2 8,5 67 83 95 993 1.004 1.014 OSO 2,7 15,5 0,0
28-11-2020 11,5     13,6     17,6 6,1 74 91 97 985 993 1.002 OSO 1,7 13,0 5,0
27-11-2020 11,6     15,3     17,5 5,9 76 94 98 974 989 1.008 ESE 17,5 57,4 48,0 0,37 5,40
26-11-2020 13,3     15,1     17,4 4,1 93 96 98 985 995 1.020 NE 12,0 44,4 1,0
25-11-2020 8,2     12,2     17,6 9,4 53 85 96 994 1.001 1.026 SSO 3,5 14,8 0,0
24-11-2020 9,4     11,2     13,5 4,1 92 94 97 998 1.008 1.028 O 4,3 13,0 0,0
23-11-2020 9,6     12,7     17,9 8,3 67 86 94 1.006 1.013 1.026 O 3,4 15,7 0,0
22-11-2020 8,7     12,2     17,9 9,2 63 83 95 1.005 1.014 1.028 O 4,2 16,7 0,0
21-11-2020 9,2     13,0     17,9 8,7 54 76 89 1.006 1.017 1.031 SO 2,8 14,8 0,0
20-11-2020 12,2     15,7     19,2 7,0 52 73 94 1.004 1.015 1.023 OSO 2,8 20,4 0,0
19-11-2020 14,5     17,7     22,8 8,3 67 88 97 1.008 1.013 1.021 O 2,1 14,8 0,0
18-11-2020 15,9     17,1     21,7 5,8 75 91 95 1.000 1.012 1.018 SO 1,1 13,0 0,0
17-11-2020 14,1     16,8     21,4 7,3 73 91 97 998 1.012 1.022 SO 2,0 13,0 0,0
16-11-2020 17,1     19,4     23,5 6,4 65 82 91 993 1.004 1.013 SSO 5,1 22,9 0,0
15-11-2020 15,7     19,5     23,2 7,5 56 77 96 997 1.003 1.010 O 8,3 37,0 0,0
14-11-2020 14,6     16,4     19,2 4,6 85 94 97 999 1.007 1.014 O 0,7 9,4 0,0
13-11-2020 12,1     16,4     18,0 5,9 89 95 97 1.007 1.009 1.011 SSE 0,1 10,0 0,0
11-11-2020 12,5     17,0     20,3 7,8 69 86 96 1.004 1.008 1.011 SO 2,6 18,5 0,0
10-11-2020 13,0     15,7     20,0 7,0 96 96 97 1.004 1.005 1.006 NNO 0,1 14,8 0,0
17-06-2019 17,6     19,1     22,6 5,0 69 84 89 1.015 1.016 1.017 N 9,3 9,3 0,0
16-06-2019 18,4     20,3     22,2 3,8 46 73 86 1.016 1.019 1.021 N 9,3 9,3 0,0
15-06-2019 20,3     23,6     30,4 10,1 2 35 71 1.011 1.016 1.020 N 9,3 9,3 0,0
14-06-2019 17,8     22,4     27,6 9,8 37 56 88 1.009 1.010 1.012 N 9,3 9,3 0,0
13-06-2019 17,6     19,0     20,8 3,2 58 72 83 1.011 1.013 1.016 N 9,3 9,3 0,0
12-06-2019 13,8     18,6     20,6 6,8 38 60 80 1.015 1.016 1.018 N 9,3 9,3 0,0
Últims 13 mesos disponibles
05/2019 10,1 15,2 20,4 18,2 18,0 22,1 31,8 21,7 40 65 86 1.004 1.014 1.025 N 9,3 9,3 17,3
04/2019 9,4 12,1 15,4 15,2 14,9 19,3 29,5 20,1 35 61 86 997 1.012 1.024 N 9,3 9,3 49,4
03/2019 7,5 10,5 16,5 14,4 13,2 19,1 28,5 21,0 34 53 84 1.010 1.024 1.030 NO 8,0 56,4 11,0
02/2019 4,5 8,4 11,7 12,4 9,4 17,3 24,1 19,6 29 58 75 995 1.025 1.033 OSO 7,6 63,3 0,0
01/2019 2,8 7,4 12,7 11,9 11,9 16,7 20,5 17,7 26 49 72 1.003 1.019 1.030 ONO 8,3 59,8 0,0
11/2018 8,9 12,8 16,2 15,2 15,8 18,3 24,0 15,1 50 69 87 597 968 1.026 O 8,8 48,0 133,1
10/2018 7,7 15,6 19,9 18,6 13,8 22,0 26,9 19,2 37 66 85 837 977 1.013 7,1 71,0 111,7
09/2018 18,0 21,0 23,5 23,9 24,0 27,3 30,8 12,8 48 72 80 537 944 1.010 6,6 45,0 130,6
08/2018 21,5 23,7 26,4 26,5 25,9 30,1 35,3 13,8 48 66 77 965 1.003 1.010 7,3 68,0 10,4
07/2018 21,8 23,1 25,7 25,8 26,3 29,3 37,1 15,3 35 67 82 954 1.001 1.010 7,9 45,0 0,0
06/2018 15,2 19,8 22,4 23,0 22,3 26,4 30,7 15,5 37 61 76 998 1.005 1.011 7,8 44,0 89,6
05/2018 9,9 15,6 18,5 18,6 16,8 22,7 27,2 17,3 36 61 81 1.001 1.006 1.009 6,8 53,0 19,0
04/2018 9,6 13,1 16,8 16,1 14,0 19,7 25,5 15,9 37 56 81 986 1.005 1.017 9,3 59,0 13,6
Tots els anys disponibles
2017 1,6 15,2 26,3 18,4 9,3 22,3 36,5 34,9 19 58 83 987 1.009 1.027 SSO 7,7 81,0 278,2
Temperatura (°C)
Humitat relativa (%)
Velocitat del vent i ràfega màxima (km/h)
Direcció del vent (°)
Pressió (hPa)
Precipitació (mm)
Nota sobre les dades: s'avisa a l'usuari de la provisionalitat i no oficialitat d'aquestes dades
Logo AVAMET blanc
Web allotjada a Sollutia
Llicència de Creative CommonsLa web d'AVAMET i els seus continguts estan subjectes a una llicència de
Reconeixement - No Comercial - Compartir igual
Avís legal - Política de privacitat - Política de cookies
NOVES ESTACIONS: València - l'Olivereta (Soci), Xixona - Carrasqueta/Bugaia (Soci), l'Alcúdia de Crespins/Canals - la Muntanyeta (Soci), Utiel - est (Soci), Xàbia - Cansalades (Soci), Alginet (Soci), Quatretondeta (Ajuntament Soci) Enguera - Benali (Soci/ADENE), la Vall d'Alba - sud (Ajuntament Soci), El Fondó dels Frares (Estació pròpia d'AVAMET nº34) - - -